Twin Cities, Minnesota
Current Conditions -  °F | °C
As of 6:53 PM on Saturday 22 Nov 2014 (Local Time) from KMSP Reporting Station
Haze Haze  
Wind Chill: 30°   Ceiling: 400
Heat Index: 36°   Visibility: 2.5mi
Dew Point: 34°   Wind: 8mph
Humidity: 93%   Direction: 160°SSE
Pressure: 29.62"   Gusts: NA
Location:  44.8695°N, 93.2126°W
Report Text: KMSP 230053Z 16007KT 130V240 2 1/2SM BR OVC004 02/01 A2962 RMK AO2 SLP036 T00220011
Loading
Personal Weather Stations






























Interactive Weather Map New forecast layout! Learn more

10-Day Weather Forecast

Advertisements
Track Severe Weather on mobile